sensor_id;sensor_type;location;lat;lon;timestamp;temperature;humidity
54168;DHT22;40072;50.958;3.592;2022-07-17T00:00:23;14.40;99.90
54168;DHT22;40072;50.958;3.592;2022-07-17T00:02:49;14.20;99.90
54168;DHT22;40072;50.958;3.592;2022-07-17T00:05:15;14.20;99.90
54168;DHT22;40072;50.958;3.592;2022-07-17T00:07:40;14.20;99.90
54168;DHT22;40072;50.958;3.592;2022-07-17T00:10:07;14.20;99.90
54168;DHT22;40072;50.958;3.592;2022-07-17T00:12:33;14.20;99.90
54168;DHT22;40072;50.958;3.592;2022-07-17T00:14:58;14.10;99.90
54168;DHT22;40072;50.958;3.592;2022-07-17T00:17:24;14.10;99.90
54168;DHT22;40072;50.958;3.592;2022-07-17T00:19:50;14.00;99.90
54168;DHT22;40072;50.958;3.592;2022-07-17T00:22:16;13.80;99.90
54168;DHT22;40072;50.958;3.592;2022-07-17T00:24:41;13.70;99.90
54168;DHT22;40072;50.958;3.592;2022-07-17T00:27:07;13.80;99.90
54168;DHT22;40072;50.958;3.592;2022-07-17T00:29:33;13.80;99.90
54168;DHT22;40072;50.958;3.592;2022-07-17T00:31:59;13.70;99.90
54168;DHT22;40072;50.958;3.592;2022-07-17T00:34:24;13.60;99.90
54168;DHT22;40072;50.958;3.592;2022-07-17T00:36:50;13.60;99.90
54168;DHT22;40072;50.958;3.592;2022-07-17T00:39:16;13.40;99.90
54168;DHT22;40072;50.958;3.592;2022-07-17T00:41:44;13.50;99.90
54168;DHT22;40072;50.958;3.592;2022-07-17T00:44:11;13.40;99.90
54168;DHT22;40072;50.958;3.592;2022-07-17T00:46:40;13.50;99.90
54168;DHT22;40072;50.958;3.592;2022-07-17T00:49:07;13.50;99.90
54168;DHT22;40072;50.958;3.592;2022-07-17T00:51:34;13.60;99.90
54168;DHT22;40072;50.958;3.592;2022-07-17T00:54:00;13.50;99.90
54168;DHT22;40072;50.958;3.592;2022-07-17T00:56:27;13.50;99.90
54168;DHT22;40072;50.958;3.592;2022-07-17T00:58:53;13.50;99.90
54168;DHT22;40072;50.958;3.592;2022-07-17T01:01:19;13.40;99.90
54168;DHT22;40072;50.958;3.592;2022-07-17T01:03:45;13.30;99.90
54168;DHT22;40072;50.958;3.592;2022-07-17T01:06:11;13.20;99.90
54168;DHT22;40072;50.958;3.592;2022-07-17T01:08:37;13.10;99.90
54168;DHT22;40072;50.958;3.592;2022-07-17T01:11:03;13.10;99.90
54168;DHT22;40072;50.958;3.592;2022-07-17T01:13:30;13.20;99.90
54168;DHT22;40072;50.958;3.592;2022-07-17T01:15:56;13.20;99.90
54168;DHT22;40072;50.958;3.592;2022-07-17T01:18:23;13.20;99.90
54168;DHT22;40072;50.958;3.592;2022-07-17T01:20:49;13.20;99.90
54168;DHT22;40072;50.958;3.592;2022-07-17T01:23:17;13.00;99.90
54168;DHT22;40072;50.958;3.592;2022-07-17T01:25:44;12.90;99.90
54168;DHT22;40072;50.958;3.592;2022-07-17T01:28:10;12.90;99.90
54168;DHT22;40072;50.958;3.592;2022-07-17T01:30:36;13.10;99.90
54168;DHT22;40072;50.958;3.592;2022-07-17T01:33:02;13.10;99.90
54168;DHT22;40072;50.958;3.592;2022-07-17T01:35:28;13.10;99.90
54168;DHT22;40072;50.958;3.592;2022-07-17T01:37:53;13.10;99.90
54168;DHT22;40072;50.958;3.592;2022-07-17T01:40:19;13.00;99.90
54168;DHT22;40072;50.958;3.592;2022-07-17T01:42:49;13.00;99.90
54168;DHT22;40072;50.958;3.592;2022-07-17T01:45:17;12.90;99.90
54168;DHT22;40072;50.958;3.592;2022-07-17T01:47:43;12.80;99.90
54168;DHT22;40072;50.958;3.592;2022-07-17T01:50:10;12.80;99.90
54168;DHT22;40072;50.958;3.592;2022-07-17T01:52:39;12.70;99.90
54168;DHT22;40072;50.958;3.592;2022-07-17T01:55:06;12.60;99.90
54168;DHT22;40072;50.958;3.592;2022-07-17T01:57:32;12.60;99.90
54168;DHT22;40072;50.958;3.592;2022-07-17T01:59:58;12.40;99.90
54168;DHT22;40072;50.958;3.592;2022-07-17T02:02:24;12.40;99.90
54168;DHT22;40072;50.958;3.592;2022-07-17T02:04:49;12.40;99.90
54168;DHT22;40072;50.958;3.592;2022-07-17T02:07:15;12.30;99.90
54168;DHT22;40072;50.958;3.592;2022-07-17T02:09:41;12.20;99.90
54168;DHT22;40072;50.958;3.592;2022-07-17T02:12:06;12.10;99.90
54168;DHT22;40072;50.958;3.592;2022-07-17T02:14:33;12.20;99.90
54168;DHT22;40072;50.958;3.592;2022-07-17T02:16:59;12.20;99.90
54168;DHT22;40072;50.958;3.592;2022-07-17T02:19:25;12.30;99.90
54168;DHT22;40072;50.958;3.592;2022-07-17T02:21:50;12.40;99.90
54168;DHT22;40072;50.958;3.592;2022-07-17T02:24:16;12.40;99.90
54168;DHT22;40072;50.958;3.592;2022-07-17T02:26:42;12.30;99.90
54168;DHT22;40072;50.958;3.592;2022-07-17T02:29:08;12.30;99.90
54168;DHT22;40072;50.958;3.592;2022-07-17T02:31:33;12.20;99.90
54168;DHT22;40072;50.958;3.592;2022-07-17T02:33:59;12.20;99.90
54168;DHT22;40072;50.958;3.592;2022-07-17T02:36:25;12.20;99.90
54168;DHT22;40072;50.958;3.592;2022-07-17T02:38:51;12.30;99.90
54168;DHT22;40072;50.958;3.592;2022-07-17T02:41:17;12.40;99.90
54168;DHT22;40072;50.958;3.592;2022-07-17T02:43:43;12.50;99.90
54168;DHT22;40072;50.958;3.592;2022-07-17T02:46:09;12.60;99.90
54168;DHT22;40072;50.958;3.592;2022-07-17T02:48:34;12.50;99.90
54168;DHT22;40072;50.958;3.592;2022-07-17T02:51:00;12.60;99.90
54168;DHT22;40072;50.958;3.592;2022-07-17T02:53:26;12.50;99.90
54168;DHT22;40072;50.958;3.592;2022-07-17T02:55:52;12.40;99.90
54168;DHT22;40072;50.958;3.592;2022-07-17T02:58:18;12.40;99.90
54168;DHT22;40072;50.958;3.592;2022-07-17T03:00:44;12.30;99.90
54168;DHT22;40072;50.958;3.592;2022-07-17T03:03:10;12.40;99.90
54168;DHT22;40072;50.958;3.592;2022-07-17T03:05:35;12.50;99.90
54168;DHT22;40072;50.958;3.592;2022-07-17T03:08:01;12.40;99.90
54168;DHT22;40072;50.958;3.592;2022-07-17T03:10:27;12.20;99.90
54168;DHT22;40072;50.958;3.592;2022-07-17T03:12:52;12.20;99.90
54168;DHT22;40072;50.958;3.592;2022-07-17T03:15:18;12.10;99.90
54168;DHT22;40072;50.958;3.592;2022-07-17T03:17:43;12.10;99.90
54168;DHT22;40072;50.958;3.592;2022-07-17T03:20:10;12.00;99.90
54168;DHT22;40072;50.958;3.592;2022-07-17T03:22:36;11.90;99.90
54168;DHT22;40072;50.958;3.592;2022-07-17T03:25:02;12.00;99.90
54168;DHT22;40072;50.958;3.592;2022-07-17T03:27:28;12.00;99.90
54168;DHT22;40072;50.958;3.592;2022-07-17T03:29:54;12.00;99.90
54168;DHT22;40072;50.958;3.592;2022-07-17T03:32:20;12.00;99.90
54168;DHT22;40072;50.958;3.592;2022-07-17T03:34:46;11.80;99.90
54168;DHT22;40072;50.958;3.592;2022-07-17T03:37:12;11.90;99.90
54168;DHT22;40072;50.958;3.592;2022-07-17T03:39:38;11.80;99.90
54168;DHT22;40072;50.958;3.592;2022-07-17T03:42:04;11.80;99.90
54168;DHT22;40072;50.958;3.592;2022-07-17T03:44:29;11.70;99.90
54168;DHT22;40072;50.958;3.592;2022-07-17T03:46:55;11.70;99.90
54168;DHT22;40072;50.958;3.592;2022-07-17T03:49:21;11.80;99.90
54168;DHT22;40072;50.958;3.592;2022-07-17T03:51:47;11.70;99.90
54168;DHT22;40072;50.958;3.592;2022-07-17T03:54:13;11.60;99.90
54168;DHT22;40072;50.958;3.592;2022-07-17T03:56:38;11.60;99.90
54168;DHT22;40072;50.958;3.592;2022-07-17T03:59:04;11.50;99.90
54168;DHT22;40072;50.958;3.592;2022-07-17T04:01:30;11.50;99.90
54168;DHT22;40072;50.958;3.592;2022-07-17T04:03:55;11.50;99.90
54168;DHT22;40072;50.958;3.592;2022-07-17T04:06:21;11.70;99.90
54168;DHT22;40072;50.958;3.592;2022-07-17T04:08:47;11.70;99.90
54168;DHT22;40072;50.958;3.592;2022-07-17T04:11:12;11.60;99.90
54168;DHT22;40072;50.958;3.592;2022-07-17T04:13:38;11.70;99.90
54168;DHT22;40072;50.958;3.592;2022-07-17T04:16:04;11.80;99.90
54168;DHT22;40072;50.958;3.592;2022-07-17T04:18:32;11.80;99.90
54168;DHT22;40072;50.958;3.592;2022-07-17T04:21:01;11.90;99.90
54168;DHT22;40072;50.958;3.592;2022-07-17T04:23:27;12.00;99.90
54168;DHT22;40072;50.958;3.592;2022-07-17T04:25:53;12.00;99.90
54168;DHT22;40072;50.958;3.592;2022-07-17T04:28:19;12.00;99.90
54168;DHT22;40072;50.958;3.592;2022-07-17T04:30:45;12.00;99.90
54168;DHT22;40072;50.958;3.592;2022-07-17T04:33:11;11.90;99.90
54168;DHT22;40072;50.958;3.592;2022-07-17T04:35:37;11.90;99.90
54168;DHT22;40072;50.958;3.592;2022-07-17T04:38:04;12.10;99.90
54168;DHT22;40072;50.958;3.592;2022-07-17T04:40:31;12.10;99.90
54168;DHT22;40072;50.958;3.592;2022-07-17T04:42:57;12.20;99.90
54168;DHT22;40072;50.958;3.592;2022-07-17T04:45:23;12.30;99.90
54168;DHT22;40072;50.958;3.592;2022-07-17T04:47:48;12.30;99.90
54168;DHT22;40072;50.958;3.592;2022-07-17T04:50:14;12.50;99.90
54168;DHT22;40072;50.958;3.592;2022-07-17T04:52:40;12.50;99.90
54168;DHT22;40072;50.958;3.592;2022-07-17T04:55:06;12.70;99.90
54168;DHT22;40072;50.958;3.592;2022-07-17T04:57:32;12.90;99.90
54168;DHT22;40072;50.958;3.592;2022-07-17T04:59:57;13.00;99.90
54168;DHT22;40072;50.958;3.592;2022-07-17T05:02:23;12.90;99.90
54168;DHT22;40072;50.958;3.592;2022-07-17T05:04:49;12.80;99.90
54168;DHT22;40072;50.958;3.592;2022-07-17T05:07:15;13.00;99.90
54168;DHT22;40072;50.958;3.592;2022-07-17T05:09:41;13.30;99.90
54168;DHT22;40072;50.958;3.592;2022-07-17T05:12:07;13.60;99.90
54168;DHT22;40072;50.958;3.592;2022-07-17T05:14:34;13.90;99.90
54168;DHT22;40072;50.958;3.592;2022-07-17T05:17:00;14.20;99.90
54168;DHT22;40072;50.958;3.592;2022-07-17T05:19:26;14.30;99.90
54168;DHT22;40072;50.958;3.592;2022-07-17T05:21:51;14.50;99.90
54168;DHT22;40072;50.958;3.592;2022-07-17T05:24:17;14.60;99.90
54168;DHT22;40072;50.958;3.592;2022-07-17T05:26:43;14.70;99.90
54168;DHT22;40072;50.958;3.592;2022-07-17T05:29:08;14.80;99.90
54168;DHT22;40072;50.958;3.592;2022-07-17T05:31:34;14.80;99.90
54168;DHT22;40072;50.958;3.592;2022-07-17T05:34:00;14.80;99.90
54168;DHT22;40072;50.958;3.592;2022-07-17T05:36:25;15.00;99.90
54168;DHT22;40072;50.958;3.592;2022-07-17T05:38:51;15.00;99.90
54168;DHT22;40072;50.958;3.592;2022-07-17T05:41:17;15.20;99.90
54168;DHT22;40072;50.958;3.592;2022-07-17T05:43:42;15.20;99.90
54168;DHT22;40072;50.958;3.592;2022-07-17T05:46:08;15.20;99.90
54168;DHT22;40072;50.958;3.592;2022-07-17T05:48:34;15.50;99.90
54168;DHT22;40072;50.958;3.592;2022-07-17T05:50:59;15.70;99.90
54168;DHT22;40072;50.958;3.592;2022-07-17T05:53:25;15.90;99.90
54168;DHT22;40072;50.958;3.592;2022-07-17T05:55:51;16.10;99.90
54168;DHT22;40072;50.958;3.592;2022-07-17T05:58:17;16.80;99.90
54168;DHT22;40072;50.958;3.592;2022-07-17T06:00:43;17.00;99.90
54168;DHT22;40072;50.958;3.592;2022-07-17T06:03:09;17.60;99.90
54168;DHT22;40072;50.958;3.592;2022-07-17T06:05:35;17.80;99.90
54168;DHT22;40072;50.958;3.592;2022-07-17T06:08:01;17.60;99.90
54168;DHT22;40072;50.958;3.592;2022-07-17T06:10:27;17.10;99.90
54168;DHT22;40072;50.958;3.592;2022-07-17T06:12:53;16.80;99.90
54168;DHT22;40072;50.958;3.592;2022-07-17T06:15:20;16.70;99.90
54168;DHT22;40072;50.958;3.592;2022-07-17T06:17:46;16.90;99.90
54168;DHT22;40072;50.958;3.592;2022-07-17T06:20:12;17.20;99.90
54168;DHT22;40072;50.958;3.592;2022-07-17T06:22:39;17.40;99.90
54168;DHT22;40072;50.958;3.592;2022-07-17T06:25:05;17.40;99.90
54168;DHT22;40072;50.958;3.592;2022-07-17T06:27:31;17.10;99.90
54168;DHT22;40072;50.958;3.592;2022-07-17T06:29:56;17.00;99.90
54168;DHT22;40072;50.958;3.592;2022-07-17T06:32:22;17.70;99.90
54168;DHT22;40072;50.958;3.592;2022-07-17T06:34:48;18.90;99.90
54168;DHT22;40072;50.958;3.592;2022-07-17T06:37:14;19.20;99.90
54168;DHT22;40072;50.958;3.592;2022-07-17T06:39:39;19.60;99.90
54168;DHT22;40072;50.958;3.592;2022-07-17T06:42:05;19.80;99.90
54168;DHT22;40072;50.958;3.592;2022-07-17T06:44:31;19.00;99.90
54168;DHT22;40072;50.958;3.592;2022-07-17T06:46:57;18.70;99.90
54168;DHT22;40072;50.958;3.592;2022-07-17T06:49:23;18.70;99.90
54168;DHT22;40072;50.958;3.592;2022-07-17T06:51:48;18.50;99.90
54168;DHT22;40072;50.958;3.592;2022-07-17T06:54:17;18.60;99.90
54168;DHT22;40072;50.958;3.592;2022-07-17T06:56:43;18.70;99.90
54168;DHT22;40072;50.958;3.592;2022-07-17T06:59:09;19.00;99.90
54168;DHT22;40072;50.958;3.592;2022-07-17T07:01:38;18.70;99.90
54168;DHT22;40072;50.958;3.592;2022-07-17T07:04:04;18.50;99.90
54168;DHT22;40072;50.958;3.592;2022-07-17T07:06:30;18.40;99.90
54168;DHT22;40072;50.958;3.592;2022-07-17T07:08:56;18.60;99.90
54168;DHT22;40072;50.958;3.592;2022-07-17T07:11:23;18.40;99.90
54168;DHT22;40072;50.958;3.592;2022-07-17T07:13:48;18.70;99.90
54168;DHT22;40072;50.958;3.592;2022-07-17T07:16:14;18.40;99.90
54168;DHT22;40072;50.958;3.592;2022-07-17T07:18:40;18.80;99.90
54168;DHT22;40072;50.958;3.592;2022-07-17T07:21:06;18.50;99.90
54168;DHT22;40072;50.958;3.592;2022-07-17T07:23:31;18.60;99.90
54168;DHT22;40072;50.958;3.592;2022-07-17T07:25:57;18.60;99.90
54168;DHT22;40072;50.958;3.592;2022-07-17T07:28:23;19.00;99.90
54168;DHT22;40072;50.958;3.592;2022-07-17T07:30:48;19.20;99.90
54168;DHT22;40072;50.958;3.592;2022-07-17T07:33:14;18.90;99.90
54168;DHT22;40072;50.958;3.592;2022-07-17T07:35:42;18.90;99.90
54168;DHT22;40072;50.958;3.592;2022-07-17T07:38:08;19.40;99.90
54168;DHT22;40072;50.958;3.592;2022-07-17T07:40:35;19.40;99.90
54168;DHT22;40072;50.958;3.592;2022-07-17T07:43:01;19.30;99.90
54168;DHT22;40072;50.958;3.592;2022-07-17T07:45:26;19.40;99.90
54168;DHT22;40072;50.958;3.592;2022-07-17T07:47:52;19.40;99.90
54168;DHT22;40072;50.958;3.592;2022-07-17T07:50:18;19.60;99.90
54168;DHT22;40072;50.958;3.592;2022-07-17T07:52:46;20.00;99.80
54168;DHT22;40072;50.958;3.592;2022-07-17T07:55:12;19.80;99.50
54168;DHT22;40072;50.958;3.592;2022-07-17T07:57:38;19.90;99.70
54168;DHT22;40072;50.958;3.592;2022-07-17T08:00:05;20.20;99.60
54168;DHT22;40072;50.958;3.592;2022-07-17T08:02:31;19.60;99.50
54168;DHT22;40072;50.958;3.592;2022-07-17T08:04:57;19.80;99.00
54168;DHT22;40072;50.958;3.592;2022-07-17T08:07:25;19.80;99.00
54168;DHT22;40072;50.958;3.592;2022-07-17T08:09:51;20.10;97.80
54168;DHT22;40072;50.958;3.592;2022-07-17T08:12:17;20.40;98.20
54168;DHT22;40072;50.958;3.592;2022-07-17T08:14:43;20.50;98.20
54168;DHT22;40072;50.958;3.592;2022-07-17T08:17:08;20.40;97.20
54168;DHT22;40072;50.958;3.592;2022-07-17T08:19:34;20.30;97.90
54168;DHT22;40072;50.958;3.592;2022-07-17T08:22:00;20.80;97.30
54168;DHT22;40072;50.958;3.592;2022-07-17T08:24:26;20.80;95.10
54168;DHT22;40072;50.958;3.592;2022-07-17T08:26:51;20.90;95.50
54168;DHT22;40072;50.958;3.592;2022-07-17T08:29:17;20.60;95.90
54168;DHT22;40072;50.958;3.592;2022-07-17T08:31:43;20.70;94.80
54168;DHT22;40072;50.958;3.592;2022-07-17T08:34:09;21.00;94.40
54168;DHT22;40072;50.958;3.592;2022-07-17T08:36:34;20.90;94.90
54168;DHT22;40072;50.958;3.592;2022-07-17T08:39:00;20.90;94.80
54168;DHT22;40072;50.958;3.592;2022-07-17T08:41:28;21.20;94.30
54168;DHT22;40072;50.958;3.592;2022-07-17T08:43:53;21.10;94.40
54168;DHT22;40072;50.958;3.592;2022-07-17T08:46:24;21.50;93.90
54168;DHT22;40072;50.958;3.592;2022-07-17T08:48:56;21.60;93.30
54168;DHT22;40072;50.958;3.592;2022-07-17T08:51:26;21.30;93.50
54168;DHT22;40072;50.958;3.592;2022-07-17T08:53:52;21.30;93.20
54168;DHT22;40072;50.958;3.592;2022-07-17T08:56:18;21.80;93.20
54168;DHT22;40072;50.958;3.592;2022-07-17T08:58:45;21.70;92.30
54168;DHT22;40072;50.958;3.592;2022-07-17T09:01:11;22.10;92.60
54168;DHT22;40072;50.958;3.592;2022-07-17T09:03:38;22.30;91.60
54168;DHT22;40072;50.958;3.592;2022-07-17T09:06:04;22.30;91.80
54168;DHT22;40072;50.958;3.592;2022-07-17T09:08:30;22.00;91.90
54168;DHT22;40072;50.958;3.592;2022-07-17T09:10:58;21.90;91.80
54168;DHT22;40072;50.958;3.592;2022-07-17T09:13:29;22.40;91.50
54168;DHT22;40072;50.958;3.592;2022-07-17T09:16:09;22.40;90.60
54168;DHT22;40072;50.958;3.592;2022-07-17T09:18:47;21.80;90.90
54168;DHT22;40072;50.958;3.592;2022-07-17T09:21:18;21.10;92.00
54168;DHT22;40072;50.958;3.592;2022-07-17T09:23:44;21.70;92.80
54168;DHT22;40072;50.958;3.592;2022-07-17T09:26:10;22.20;90.90
54168;DHT22;40072;50.958;3.592;2022-07-17T09:28:46;22.60;91.00
54168;DHT22;40072;50.958;3.592;2022-07-17T09:31:12;22.90;90.20
54168;DHT22;40072;50.958;3.592;2022-07-17T09:33:40;22.70;90.10
54168;DHT22;40072;50.958;3.592;2022-07-17T09:36:10;22.80;90.30
54168;DHT22;40072;50.958;3.592;2022-07-17T09:38:41;22.90;89.20
54168;DHT22;40072;50.958;3.592;2022-07-17T09:41:10;22.70;90.10
54168;DHT22;40072;50.958;3.592;2022-07-17T09:43:41;22.80;89.00
54168;DHT22;40072;50.958;3.592;2022-07-17T09:46:09;22.90;89.30
54168;DHT22;40072;50.958;3.592;2022-07-17T09:48:40;23.00;89.50
54168;DHT22;40072;50.958;3.592;2022-07-17T09:51:07;23.00;88.70
54168;DHT22;40072;50.958;3.592;2022-07-17T09:53:36;23.20;88.30
54168;DHT22;40072;50.958;3.592;2022-07-17T09:56:03;23.20;87.70
54168;DHT22;40072;50.958;3.592;2022-07-17T09:58:30;23.50;89.10
54168;DHT22;40072;50.958;3.592;2022-07-17T10:00:58;23.60;86.20
54168;DHT22;40072;50.958;3.592;2022-07-17T10:03:24;22.80;89.10
54168;DHT22;40072;50.958;3.592;2022-07-17T10:05:51;22.90;89.40
54168;DHT22;40072;50.958;3.592;2022-07-17T10:08:17;23.10;89.30
54168;DHT22;40072;50.958;3.592;2022-07-17T10:10:43;23.30;88.90
54168;DHT22;40072;50.958;3.592;2022-07-17T10:13:10;23.80;88.00
54168;DHT22;40072;50.958;3.592;2022-07-17T10:15:38;24.70;86.60
54168;DHT22;40072;50.958;3.592;2022-07-17T10:18:05;26.40;82.70
54168;DHT22;40072;50.958;3.592;2022-07-17T10:20:31;28.00;78.20
54168;DHT22;40072;50.958;3.592;2022-07-17T10:22:57;27.80;76.00
54168;DHT22;40072;50.958;3.592;2022-07-17T10:25:22;27.30;75.30
54168;DHT22;40072;50.958;3.592;2022-07-17T10:27:53;28.20;75.80
54168;DHT22;40072;50.958;3.592;2022-07-17T10:30:24;29.00;71.90
54168;DHT22;40072;50.958;3.592;2022-07-17T10:32:55;29.40;71.50
54168;DHT22;40072;50.958;3.592;2022-07-17T10:35:21;31.10;67.40
54168;DHT22;40072;50.958;3.592;2022-07-17T10:37:47;31.40;67.00
54168;DHT22;40072;50.958;3.592;2022-07-17T10:40:31;27.90;69.20
54168;DHT22;40072;50.958;3.592;2022-07-17T10:43:05;29.90;70.70
54168;DHT22;40072;50.958;3.592;2022-07-17T10:45:38;29.30;69.90
54168;DHT22;40072;50.958;3.592;2022-07-17T10:48:07;27.50;67.90
54168;DHT22;40072;50.958;3.592;2022-07-17T10:50:54;26.40;71.60
54168;DHT22;40072;50.958;3.592;2022-07-17T10:53:23;26.10;72.70
54168;DHT22;40072;50.958;3.592;2022-07-17T10:56:08;25.40;76.00
54168;DHT22;40072;50.958;3.592;2022-07-17T10:58:36;25.60;78.90
54168;DHT22;40072;50.958;3.592;2022-07-17T11:03:40;27.70;72.50
54168;DHT22;40072;50.958;3.592;2022-07-17T11:06:19;27.90;72.90
54168;DHT22;40072;50.958;3.592;2022-07-17T11:08:49;28.70;70.30
54168;DHT22;40072;50.958;3.592;2022-07-17T11:11:18;30.20;67.00
54168;DHT22;40072;50.958;3.592;2022-07-17T11:13:45;31.10;66.20
54168;DHT22;40072;50.958;3.592;2022-07-17T11:16:10;31.20;68.20
54168;DHT22;40072;50.958;3.592;2022-07-17T11:18:36;31.70;65.90
54168;DHT22;40072;50.958;3.592;2022-07-17T11:21:03;31.80;63.70
54168;DHT22;40072;50.958;3.592;2022-07-17T11:23:32;32.60;62.60
54168;DHT22;40072;50.958;3.592;2022-07-17T11:26:06;32.80;60.90
54168;DHT22;40072;50.958;3.592;2022-07-17T11:31:02;31.60;63.40
54168;DHT22;40072;50.958;3.592;2022-07-17T11:33:28;31.00;61.90
54168;DHT22;40072;50.958;3.592;2022-07-17T11:35:54;29.90;64.40
54168;DHT22;40072;50.958;3.592;2022-07-17T11:38:28;33.00;62.90
54168;DHT22;40072;50.958;3.592;2022-07-17T11:40:54;34.20;60.40
54168;DHT22;40072;50.958;3.592;2022-07-17T11:43:20;32.60;60.00
54168;DHT22;40072;50.958;3.592;2022-07-17T11:45:46;32.30;59.10
54168;DHT22;40072;50.958;3.592;2022-07-17T11:48:12;30.90;59.80
54168;DHT22;40072;50.958;3.592;2022-07-17T11:50:38;29.90;63.50
54168;DHT22;40072;50.958;3.592;2022-07-17T11:53:05;32.20;62.80
54168;DHT22;40072;50.958;3.592;2022-07-17T11:55:49;32.10;60.70
54168;DHT22;40072;50.958;3.592;2022-07-17T11:58:15;31.10;63.00
54168;DHT22;40072;50.958;3.592;2022-07-17T12:00:41;30.80;62.60
54168;DHT22;40072;50.958;3.592;2022-07-17T12:03:08;30.20;62.50
54168;DHT22;40072;50.958;3.592;2022-07-17T12:05:35;30.90;60.60
54168;DHT22;40072;50.958;3.592;2022-07-17T12:08:01;30.70;60.90
54168;DHT22;40072;50.958;3.592;2022-07-17T12:10:28;31.20;58.40
54168;DHT22;40072;50.958;3.592;2022-07-17T12:13:03;32.00;60.50
54168;DHT22;40072;50.958;3.592;2022-07-17T12:15:46;32.60;57.80
54168;DHT22;40072;50.958;3.592;2022-07-17T12:18:28;32.00;59.10
54168;DHT22;40072;50.958;3.592;2022-07-17T12:20:57;31.40;60.60
54168;DHT22;40072;50.958;3.592;2022-07-17T12:23:29;31.30;60.40
54168;DHT22;40072;50.958;3.592;2022-07-17T12:26:08;32.00;59.40
54168;DHT22;40072;50.958;3.592;2022-07-17T12:28:35;31.90;56.70
54168;DHT22;40072;50.958;3.592;2022-07-17T12:31:02;32.00;57.20
54168;DHT22;40072;50.958;3.592;2022-07-17T12:33:27;31.80;57.00
54168;DHT22;40072;50.958;3.592;2022-07-17T12:35:53;31.50;55.70
54168;DHT22;40072;50.958;3.592;2022-07-17T12:38:19;32.20;54.80
54168;DHT22;40072;50.958;3.592;2022-07-17T12:40:45;32.20;54.20
54168;DHT22;40072;50.958;3.592;2022-07-17T12:43:11;30.30;56.60
54168;DHT22;40072;50.958;3.592;2022-07-17T12:45:37;30.10;57.40
54168;DHT22;40072;50.958;3.592;2022-07-17T12:48:02;30.90;57.10
54168;DHT22;40072;50.958;3.592;2022-07-17T12:50:28;30.40;58.40
54168;DHT22;40072;50.958;3.592;2022-07-17T12:52:54;31.60;58.40
54168;DHT22;40072;50.958;3.592;2022-07-17T12:55:20;32.80;57.20
54168;DHT22;40072;50.958;3.592;2022-07-17T12:57:46;32.10;57.40
54168;DHT22;40072;50.958;3.592;2022-07-17T13:00:12;32.50;57.70
54168;DHT22;40072;50.958;3.592;2022-07-17T13:02:38;33.50;57.10
54168;DHT22;40072;50.958;3.592;2022-07-17T13:05:04;35.40;57.40
54168;DHT22;40072;50.958;3.592;2022-07-17T13:07:29;34.50;56.50
54168;DHT22;40072;50.958;3.592;2022-07-17T13:09:55;32.20;58.10
54168;DHT22;40072;50.958;3.592;2022-07-17T13:12:21;31.00;59.10
54168;DHT22;40072;50.958;3.592;2022-07-17T13:14:47;30.70;58.20
54168;DHT22;40072;50.958;3.592;2022-07-17T13:17:13;30.20;58.00
54168;DHT22;40072;50.958;3.592;2022-07-17T13:19:38;30.00;57.70
54168;DHT22;40072;50.958;3.592;2022-07-17T13:22:04;30.10;58.80
54168;DHT22;40072;50.958;3.592;2022-07-17T13:24:30;30.50;57.90
54168;DHT22;40072;50.958;3.592;2022-07-17T13:26:56;29.60;58.20
54168;DHT22;40072;50.958;3.592;2022-07-17T13:29:22;29.70;59.90
54168;DHT22;40072;50.958;3.592;2022-07-17T13:31:48;30.50;58.00
54168;DHT22;40072;50.958;3.592;2022-07-17T13:34:14;31.20;54.00
54168;DHT22;40072;50.958;3.592;2022-07-17T13:36:40;32.80;54.50
54168;DHT22;40072;50.958;3.592;2022-07-17T13:39:06;32.40;54.40
54168;DHT22;40072;50.958;3.592;2022-07-17T13:41:31;31.10;55.20
54168;DHT22;40072;50.958;3.592;2022-07-17T13:43:57;30.80;56.70
54168;DHT22;40072;50.958;3.592;2022-07-17T13:46:24;31.30;55.90
54168;DHT22;40072;50.958;3.592;2022-07-17T13:48:50;31.90;55.00
54168;DHT22;40072;50.958;3.592;2022-07-17T13:51:15;31.10;54.70
54168;DHT22;40072;50.958;3.592;2022-07-17T13:53:42;32.50;54.50
54168;DHT22;40072;50.958;3.592;2022-07-17T13:56:07;31.40;53.80
54168;DHT22;40072;50.958;3.592;2022-07-17T13:58:33;29.80;55.70
54168;DHT22;40072;50.958;3.592;2022-07-17T14:00:59;31.40;56.90
54168;DHT22;40072;50.958;3.592;2022-07-17T14:03:25;32.10;54.60
54168;DHT22;40072;50.958;3.592;2022-07-17T14:05:51;31.90;54.80
54168;DHT22;40072;50.958;3.592;2022-07-17T14:08:16;30.30;56.60
54168;DHT22;40072;50.958;3.592;2022-07-17T14:10:42;30.90;56.10
54168;DHT22;40072;50.958;3.592;2022-07-17T14:13:08;32.20;56.50
54168;DHT22;40072;50.958;3.592;2022-07-17T14:15:35;32.10;55.40
54168;DHT22;40072;50.958;3.592;2022-07-17T14:18:01;31.10;56.60
54168;DHT22;40072;50.958;3.592;2022-07-17T14:20:27;30.10;57.40
54168;DHT22;40072;50.958;3.592;2022-07-17T14:22:53;30.40;58.50
54168;DHT22;40072;50.958;3.592;2022-07-17T14:25:19;30.10;58.60
54168;DHT22;40072;50.958;3.592;2022-07-17T14:27:44;30.70;57.70
54168;DHT22;40072;50.958;3.592;2022-07-17T14:30:11;30.00;58.60
54168;DHT22;40072;50.958;3.592;2022-07-17T14:32:36;29.30;59.80
54168;DHT22;40072;50.958;3.592;2022-07-17T14:35:03;29.50;61.10
54168;DHT22;40072;50.958;3.592;2022-07-17T14:37:29;30.60;59.00
54168;DHT22;40072;50.958;3.592;2022-07-17T14:39:55;31.30;56.10
54168;DHT22;40072;50.958;3.592;2022-07-17T14:42:20;30.70;56.10
54168;DHT22;40072;50.958;3.592;2022-07-17T14:44:46;30.50;56.20
54168;DHT22;40072;50.958;3.592;2022-07-17T14:47:12;30.20;56.50
54168;DHT22;40072;50.958;3.592;2022-07-17T14:49:37;30.00;56.60
54168;DHT22;40072;50.958;3.592;2022-07-17T14:52:03;29.80;58.40
54168;DHT22;40072;50.958;3.592;2022-07-17T14:54:29;29.40;58.10
54168;DHT22;40072;50.958;3.592;2022-07-17T14:56:56;30.20;58.10
54168;DHT22;40072;50.958;3.592;2022-07-17T14:59:24;29.80;57.30
54168;DHT22;40072;50.958;3.592;2022-07-17T15:01:49;28.60;58.50
54168;DHT22;40072;50.958;3.592;2022-07-17T15:04:15;29.60;57.90
54168;DHT22;40072;50.958;3.592;2022-07-17T15:06:41;29.00;57.40
54168;DHT22;40072;50.958;3.592;2022-07-17T15:09:07;28.60;58.90
54168;DHT22;40072;50.958;3.592;2022-07-17T15:11:33;28.50;59.10
54168;DHT22;40072;50.958;3.592;2022-07-17T15:13:58;29.10;59.40
54168;DHT22;40072;50.958;3.592;2022-07-17T15:16:24;30.20;58.40
54168;DHT22;40072;50.958;3.592;2022-07-17T15:18:50;30.20;58.10
54168;DHT22;40072;50.958;3.592;2022-07-17T15:21:15;29.90;59.10
54168;DHT22;40072;50.958;3.592;2022-07-17T15:23:41;30.50;58.80
54168;DHT22;40072;50.958;3.592;2022-07-17T15:26:07;29.90;59.20
54168;DHT22;40072;50.958;3.592;2022-07-17T15:28:33;30.90;59.10
54168;DHT22;40072;50.958;3.592;2022-07-17T15:30:59;29.30;59.40